sensor_id;sensor_type;location;lat;lon;timestamp;temperature;humidity
29939;DHT22;16799;50.844;5.304;2023-09-07T00:01:17;18.70;99.90
29939;DHT22;16799;50.844;5.304;2023-09-07T00:03:43;18.60;99.90
29939;DHT22;16799;50.844;5.304;2023-09-07T00:06:09;18.50;99.90
29939;DHT22;16799;50.844;5.304;2023-09-07T00:08:35;18.50;99.90
29939;DHT22;16799;50.844;5.304;2023-09-07T00:11:07;18.40;99.90
29939;DHT22;16799;50.844;5.304;2023-09-07T00:13:33;18.40;99.90
29939;DHT22;16799;50.844;5.304;2023-09-07T00:16:00;18.30;99.90
29939;DHT22;16799;50.844;5.304;2023-09-07T00:18:29;18.40;99.90
29939;DHT22;16799;50.844;5.304;2023-09-07T00:20:55;18.30;99.90
29939;DHT22;16799;50.844;5.304;2023-09-07T00:23:21;18.40;99.90
29939;DHT22;16799;50.844;5.304;2023-09-07T00:25:47;18.50;99.90
29939;DHT22;16799;50.844;5.304;2023-09-07T00:28:12;18.50;99.90
29939;DHT22;16799;50.844;5.304;2023-09-07T00:30:38;18.50;99.90
29939;DHT22;16799;50.844;5.304;2023-09-07T00:33:04;18.40;99.90
29939;DHT22;16799;50.844;5.304;2023-09-07T00:35:30;18.30;99.90
29939;DHT22;16799;50.844;5.304;2023-09-07T00:37:56;18.10;99.90
29939;DHT22;16799;50.844;5.304;2023-09-07T00:40:22;18.10;99.90
29939;DHT22;16799;50.844;5.304;2023-09-07T00:42:48;18.00;99.90
29939;DHT22;16799;50.844;5.304;2023-09-07T00:45:14;18.00;99.90
29939;DHT22;16799;50.844;5.304;2023-09-07T00:47:40;17.90;99.90
29939;DHT22;16799;50.844;5.304;2023-09-07T00:50:06;17.70;99.90
29939;DHT22;16799;50.844;5.304;2023-09-07T00:52:33;17.60;99.90
29939;DHT22;16799;50.844;5.304;2023-09-07T00:55:02;17.60;99.90
29939;DHT22;16799;50.844;5.304;2023-09-07T00:57:29;17.60;99.90
29939;DHT22;16799;50.844;5.304;2023-09-07T00:59:55;17.60;99.90
29939;DHT22;16799;50.844;5.304;2023-09-07T01:02:21;17.60;99.90
29939;DHT22;16799;50.844;5.304;2023-09-07T01:04:47;17.50;99.90
29939;DHT22;16799;50.844;5.304;2023-09-07T01:07:24;17.50;99.90
29939;DHT22;16799;50.844;5.304;2023-09-07T01:09:54;17.60;99.90
29939;DHT22;16799;50.844;5.304;2023-09-07T01:12:21;17.70;99.90
29939;DHT22;16799;50.844;5.304;2023-09-07T01:14:47;17.70;99.90
29939;DHT22;16799;50.844;5.304;2023-09-07T01:17:12;17.60;99.90
29939;DHT22;16799;50.844;5.304;2023-09-07T01:19:39;17.50;99.90
29939;DHT22;16799;50.844;5.304;2023-09-07T01:22:07;17.50;99.90
29939;DHT22;16799;50.844;5.304;2023-09-07T01:24:34;17.40;99.90
29939;DHT22;16799;50.844;5.304;2023-09-07T01:27:02;17.20;99.90
29939;DHT22;16799;50.844;5.304;2023-09-07T01:29:29;17.30;99.90
29939;DHT22;16799;50.844;5.304;2023-09-07T01:31:55;17.30;99.90
29939;DHT22;16799;50.844;5.304;2023-09-07T01:34:22;17.20;99.90
29939;DHT22;16799;50.844;5.304;2023-09-07T01:36:49;17.20;99.90
29939;DHT22;16799;50.844;5.304;2023-09-07T01:39:14;17.10;99.90
29939;DHT22;16799;50.844;5.304;2023-09-07T01:41:40;17.20;99.90
29939;DHT22;16799;50.844;5.304;2023-09-07T01:44:06;17.10;99.90
29939;DHT22;16799;50.844;5.304;2023-09-07T01:46:31;17.10;99.90
29939;DHT22;16799;50.844;5.304;2023-09-07T01:48:57;17.00;99.90
29939;DHT22;16799;50.844;5.304;2023-09-07T01:51:23;17.10;99.90
29939;DHT22;16799;50.844;5.304;2023-09-07T01:53:48;16.90;99.90
29939;DHT22;16799;50.844;5.304;2023-09-07T01:56:16;16.80;99.90
29939;DHT22;16799;50.844;5.304;2023-09-07T01:58:42;16.90;99.90
29939;DHT22;16799;50.844;5.304;2023-09-07T02:01:30;16.80;99.90
29939;DHT22;16799;50.844;5.304;2023-09-07T02:03:56;16.80;99.90
29939;DHT22;16799;50.844;5.304;2023-09-07T02:06:22;16.90;99.90
29939;DHT22;16799;50.844;5.304;2023-09-07T02:08:48;16.90;99.90
29939;DHT22;16799;50.844;5.304;2023-09-07T02:11:14;16.80;99.90
29939;DHT22;16799;50.844;5.304;2023-09-07T02:13:43;16.70;99.90
29939;DHT22;16799;50.844;5.304;2023-09-07T02:16:09;16.70;99.90
29939;DHT22;16799;50.844;5.304;2023-09-07T02:18:36;16.70;99.90
29939;DHT22;16799;50.844;5.304;2023-09-07T02:21:03;16.70;99.90
29939;DHT22;16799;50.844;5.304;2023-09-07T02:23:32;16.50;99.90
29939;DHT22;16799;50.844;5.304;2023-09-07T02:25:59;16.40;99.90
29939;DHT22;16799;50.844;5.304;2023-09-07T02:28:25;16.60;99.90
29939;DHT22;16799;50.844;5.304;2023-09-07T02:30:51;16.70;99.90
29939;DHT22;16799;50.844;5.304;2023-09-07T02:33:17;16.60;99.90
29939;DHT22;16799;50.844;5.304;2023-09-07T02:35:43;16.60;99.90
29939;DHT22;16799;50.844;5.304;2023-09-07T02:38:09;16.40;99.90
29939;DHT22;16799;50.844;5.304;2023-09-07T02:40:44;16.40;99.90
29939;DHT22;16799;50.844;5.304;2023-09-07T02:43:10;16.40;99.90
29939;DHT22;16799;50.844;5.304;2023-09-07T02:45:37;16.50;99.90
29939;DHT22;16799;50.844;5.304;2023-09-07T02:48:03;16.40;99.90
29939;DHT22;16799;50.844;5.304;2023-09-07T02:50:31;16.40;99.90
29939;DHT22;16799;50.844;5.304;2023-09-07T02:52:57;16.30;99.90
29939;DHT22;16799;50.844;5.304;2023-09-07T02:55:23;16.40;99.90
29939;DHT22;16799;50.844;5.304;2023-09-07T02:57:48;16.50;99.90
29939;DHT22;16799;50.844;5.304;2023-09-07T03:00:14;16.40;99.90
29939;DHT22;16799;50.844;5.304;2023-09-07T03:02:45;16.30;99.90
29939;DHT22;16799;50.844;5.304;2023-09-07T03:05:11;16.30;99.90
29939;DHT22;16799;50.844;5.304;2023-09-07T03:07:36;16.20;99.90
29939;DHT22;16799;50.844;5.304;2023-09-07T03:10:04;16.00;99.90
29939;DHT22;16799;50.844;5.304;2023-09-07T03:12:30;15.90;99.90
29939;DHT22;16799;50.844;5.304;2023-09-07T03:14:56;15.80;99.90
29939;DHT22;16799;50.844;5.304;2023-09-07T03:17:22;15.80;99.90
29939;DHT22;16799;50.844;5.304;2023-09-07T03:19:47;15.90;99.90
29939;DHT22;16799;50.844;5.304;2023-09-07T03:22:13;15.90;99.90
29939;DHT22;16799;50.844;5.304;2023-09-07T03:24:39;15.90;99.90
29939;DHT22;16799;50.844;5.304;2023-09-07T03:27:05;15.80;99.90
29939;DHT22;16799;50.844;5.304;2023-09-07T03:29:34;15.80;99.90
29939;DHT22;16799;50.844;5.304;2023-09-07T03:32:01;15.80;99.90
29939;DHT22;16799;50.844;5.304;2023-09-07T03:34:27;15.80;99.90
29939;DHT22;16799;50.844;5.304;2023-09-07T03:36:52;15.80;99.90
29939;DHT22;16799;50.844;5.304;2023-09-07T03:39:18;15.90;99.90
29939;DHT22;16799;50.844;5.304;2023-09-07T03:41:44;15.90;99.90
29939;DHT22;16799;50.844;5.304;2023-09-07T03:44:10;15.90;99.90
29939;DHT22;16799;50.844;5.304;2023-09-07T03:46:36;15.80;99.90
29939;DHT22;16799;50.844;5.304;2023-09-07T03:49:02;15.80;99.90
29939;DHT22;16799;50.844;5.304;2023-09-07T03:51:28;15.80;99.90
29939;DHT22;16799;50.844;5.304;2023-09-07T03:53:53;15.70;99.90
29939;DHT22;16799;50.844;5.304;2023-09-07T03:56:19;15.70;99.90
29939;DHT22;16799;50.844;5.304;2023-09-07T03:58:45;15.70;99.90
29939;DHT22;16799;50.844;5.304;2023-09-07T04:01:13;15.60;99.90
29939;DHT22;16799;50.844;5.304;2023-09-07T04:03:39;15.60;99.90
29939;DHT22;16799;50.844;5.304;2023-09-07T04:06:06;15.60;99.90
29939;DHT22;16799;50.844;5.304;2023-09-07T04:08:32;15.60;99.90
29939;DHT22;16799;50.844;5.304;2023-09-07T04:10:58;15.60;99.90
29939;DHT22;16799;50.844;5.304;2023-09-07T04:13:23;15.60;99.90
29939;DHT22;16799;50.844;5.304;2023-09-07T04:15:49;15.60;99.90
29939;DHT22;16799;50.844;5.304;2023-09-07T04:18:15;15.50;99.90
29939;DHT22;16799;50.844;5.304;2023-09-07T04:20:42;15.60;99.90
29939;DHT22;16799;50.844;5.304;2023-09-07T04:23:08;15.50;99.90
29939;DHT22;16799;50.844;5.304;2023-09-07T04:25:34;15.40;99.90
29939;DHT22;16799;50.844;5.304;2023-09-07T04:27:59;15.40;99.90
29939;DHT22;16799;50.844;5.304;2023-09-07T04:30:25;15.20;99.90
29939;DHT22;16799;50.844;5.304;2023-09-07T04:32:51;15.20;99.90
29939;DHT22;16799;50.844;5.304;2023-09-07T04:35:17;15.20;99.90
29939;DHT22;16799;50.844;5.304;2023-09-07T04:37:43;15.00;99.90
29939;DHT22;16799;50.844;5.304;2023-09-07T04:40:09;14.90;99.90
29939;DHT22;16799;50.844;5.304;2023-09-07T04:42:36;15.10;99.90
29939;DHT22;16799;50.844;5.304;2023-09-07T04:45:02;15.10;99.90
29939;DHT22;16799;50.844;5.304;2023-09-07T04:47:28;15.10;99.90
29939;DHT22;16799;50.844;5.304;2023-09-07T04:49:54;15.20;99.90
29939;DHT22;16799;50.844;5.304;2023-09-07T04:52:19;15.20;99.90
29939;DHT22;16799;50.844;5.304;2023-09-07T04:54:45;15.20;99.90
29939;DHT22;16799;50.844;5.304;2023-09-07T04:57:12;15.20;99.90
29939;DHT22;16799;50.844;5.304;2023-09-07T04:59:37;15.20;99.90
29939;DHT22;16799;50.844;5.304;2023-09-07T05:02:03;15.10;99.90
29939;DHT22;16799;50.844;5.304;2023-09-07T05:04:29;15.00;99.90
29939;DHT22;16799;50.844;5.304;2023-09-07T05:06:56;15.00;99.90
29939;DHT22;16799;50.844;5.304;2023-09-07T05:09:22;15.10;99.90
29939;DHT22;16799;50.844;5.304;2023-09-07T05:11:49;15.10;99.90
29939;DHT22;16799;50.844;5.304;2023-09-07T05:14:14;15.10;99.90
29939;DHT22;16799;50.844;5.304;2023-09-07T05:16:43;15.10;99.90
29939;DHT22;16799;50.844;5.304;2023-09-07T05:19:09;15.10;99.90
29939;DHT22;16799;50.844;5.304;2023-09-07T05:21:35;15.10;99.90
29939;DHT22;16799;50.844;5.304;2023-09-07T05:24:00;15.00;99.90
29939;DHT22;16799;50.844;5.304;2023-09-07T05:26:26;14.90;99.90
29939;DHT22;16799;50.844;5.304;2023-09-07T05:28:52;14.90;99.90
29939;DHT22;16799;50.844;5.304;2023-09-07T05:31:17;15.00;99.90
29939;DHT22;16799;50.844;5.304;2023-09-07T05:33:43;15.00;99.90
29939;DHT22;16799;50.844;5.304;2023-09-07T05:36:09;15.00;99.90
29939;DHT22;16799;50.844;5.304;2023-09-07T05:38:34;15.00;99.90
29939;DHT22;16799;50.844;5.304;2023-09-07T05:41:00;15.00;99.90
29939;DHT22;16799;50.844;5.304;2023-09-07T05:43:26;15.00;99.90
29939;DHT22;16799;50.844;5.304;2023-09-07T05:45:51;15.30;99.90
29939;DHT22;16799;50.844;5.304;2023-09-07T05:48:17;15.30;99.90
29939;DHT22;16799;50.844;5.304;2023-09-07T05:50:43;15.40;99.90
29939;DHT22;16799;50.844;5.304;2023-09-07T05:53:09;15.10;99.90
29939;DHT22;16799;50.844;5.304;2023-09-07T05:55:35;15.10;99.90
29939;DHT22;16799;50.844;5.304;2023-09-07T05:58:05;15.10;99.90
29939;DHT22;16799;50.844;5.304;2023-09-07T06:00:31;14.90;99.90
29939;DHT22;16799;50.844;5.304;2023-09-07T06:02:57;15.20;99.90
29939;DHT22;16799;50.844;5.304;2023-09-07T06:05:23;15.20;99.90
29939;DHT22;16799;50.844;5.304;2023-09-07T06:07:49;15.00;99.90
29939;DHT22;16799;50.844;5.304;2023-09-07T06:10:14;15.00;99.90
29939;DHT22;16799;50.844;5.304;2023-09-07T06:12:40;15.10;99.90
29939;DHT22;16799;50.844;5.304;2023-09-07T06:15:07;15.50;99.90
29939;DHT22;16799;50.844;5.304;2023-09-07T06:17:33;16.00;99.90
29939;DHT22;16799;50.844;5.304;2023-09-07T06:19:58;16.20;99.90
29939;DHT22;16799;50.844;5.304;2023-09-07T06:22:24;16.30;99.90
29939;DHT22;16799;50.844;5.304;2023-09-07T06:24:50;16.50;99.90
29939;DHT22;16799;50.844;5.304;2023-09-07T06:27:16;16.80;99.90
29939;DHT22;16799;50.844;5.304;2023-09-07T06:29:41;17.00;99.90
29939;DHT22;16799;50.844;5.304;2023-09-07T06:32:07;17.20;99.90
29939;DHT22;16799;50.844;5.304;2023-09-07T06:34:33;17.30;99.90
29939;DHT22;16799;50.844;5.304;2023-09-07T06:36:58;17.50;99.90
29939;DHT22;16799;50.844;5.304;2023-09-07T06:39:24;17.60;99.90
29939;DHT22;16799;50.844;5.304;2023-09-07T06:41:50;17.80;99.90
29939;DHT22;16799;50.844;5.304;2023-09-07T06:44:15;17.90;99.90
29939;DHT22;16799;50.844;5.304;2023-09-07T06:46:41;17.80;99.90
29939;DHT22;16799;50.844;5.304;2023-09-07T06:49:07;18.10;99.90
29939;DHT22;16799;50.844;5.304;2023-09-07T06:51:33;18.40;99.90
29939;DHT22;16799;50.844;5.304;2023-09-07T06:53:59;18.60;99.90
29939;DHT22;16799;50.844;5.304;2023-09-07T06:56:25;18.80;99.90
29939;DHT22;16799;50.844;5.304;2023-09-07T06:58:52;19.10;99.90
29939;DHT22;16799;50.844;5.304;2023-09-07T07:01:18;19.40;99.90
29939;DHT22;16799;50.844;5.304;2023-09-07T07:03:43;19.60;99.90
29939;DHT22;16799;50.844;5.304;2023-09-07T07:06:09;19.70;99.90
29939;DHT22;16799;50.844;5.304;2023-09-07T07:08:35;19.80;99.90
29939;DHT22;16799;50.844;5.304;2023-09-07T07:11:00;20.00;99.90
29939;DHT22;16799;50.844;5.304;2023-09-07T07:13:26;20.30;99.90
29939;DHT22;16799;50.844;5.304;2023-09-07T07:15:52;20.70;99.90
29939;DHT22;16799;50.844;5.304;2023-09-07T07:18:18;20.90;99.90
29939;DHT22;16799;50.844;5.304;2023-09-07T07:20:44;20.90;99.90
29939;DHT22;16799;50.844;5.304;2023-09-07T07:23:10;21.10;99.90
29939;DHT22;16799;50.844;5.304;2023-09-07T07:25:37;21.10;99.90
29939;DHT22;16799;50.844;5.304;2023-09-07T07:28:06;21.40;99.90
29939;DHT22;16799;50.844;5.304;2023-09-07T07:30:36;21.50;99.90
29939;DHT22;16799;50.844;5.304;2023-09-07T07:33:03;21.90;99.90
29939;DHT22;16799;50.844;5.304;2023-09-07T07:35:32;21.90;99.90
29939;DHT22;16799;50.844;5.304;2023-09-07T07:37:58;22.00;99.90
29939;DHT22;16799;50.844;5.304;2023-09-07T07:40:24;22.20;99.90
29939;DHT22;16799;50.844;5.304;2023-09-07T07:42:51;22.30;99.90
29939;DHT22;16799;50.844;5.304;2023-09-07T07:45:18;22.60;99.90
29939;DHT22;16799;50.844;5.304;2023-09-07T07:47:48;22.60;99.90
29939;DHT22;16799;50.844;5.304;2023-09-07T07:50:15;22.60;99.90
29939;DHT22;16799;50.844;5.304;2023-09-07T07:52:41;22.60;99.90
29939;DHT22;16799;50.844;5.304;2023-09-07T07:55:07;22.70;99.90
29939;DHT22;16799;50.844;5.304;2023-09-07T07:57:33;22.90;99.90
29939;DHT22;16799;50.844;5.304;2023-09-07T07:59:58;23.10;99.90
29939;DHT22;16799;50.844;5.304;2023-09-07T08:02:24;23.30;99.90
29939;DHT22;16799;50.844;5.304;2023-09-07T08:04:50;23.60;99.90
29939;DHT22;16799;50.844;5.304;2023-09-07T08:07:16;23.70;99.90
29939;DHT22;16799;50.844;5.304;2023-09-07T08:09:42;24.10;99.90
29939;DHT22;16799;50.844;5.304;2023-09-07T08:12:07;24.40;99.90
29939;DHT22;16799;50.844;5.304;2023-09-07T08:14:33;24.50;99.90
29939;DHT22;16799;50.844;5.304;2023-09-07T08:17:00;24.70;99.90
29939;DHT22;16799;50.844;5.304;2023-09-07T08:19:27;24.90;99.90
29939;DHT22;16799;50.844;5.304;2023-09-07T08:21:55;24.90;99.90
29939;DHT22;16799;50.844;5.304;2023-09-07T08:24:21;25.00;99.90
29939;DHT22;16799;50.844;5.304;2023-09-07T08:26:46;25.00;99.90
29939;DHT22;16799;50.844;5.304;2023-09-07T08:29:16;25.20;99.90
29939;DHT22;16799;50.844;5.304;2023-09-07T08:31:42;25.40;99.90
29939;DHT22;16799;50.844;5.304;2023-09-07T08:34:10;25.40;99.90
29939;DHT22;16799;50.844;5.304;2023-09-07T08:36:37;25.80;99.90
29939;DHT22;16799;50.844;5.304;2023-09-07T08:39:04;25.80;99.90
29939;DHT22;16799;50.844;5.304;2023-09-07T08:41:39;26.00;99.90
29939;DHT22;16799;50.844;5.304;2023-09-07T08:44:15;26.00;99.90
29939;DHT22;16799;50.844;5.304;2023-09-07T08:46:41;26.00;99.90
29939;DHT22;16799;50.844;5.304;2023-09-07T08:49:06;26.30;99.90
29939;DHT22;16799;50.844;5.304;2023-09-07T08:51:32;26.40;99.90
29939;DHT22;16799;50.844;5.304;2023-09-07T08:53:58;26.40;99.90
29939;DHT22;16799;50.844;5.304;2023-09-07T08:56:25;26.40;99.90
29939;DHT22;16799;50.844;5.304;2023-09-07T08:58:51;26.70;99.90
29939;DHT22;16799;50.844;5.304;2023-09-07T09:01:17;26.80;99.90
29939;DHT22;16799;50.844;5.304;2023-09-07T09:03:44;26.90;99.90
29939;DHT22;16799;50.844;5.304;2023-09-07T09:06:11;27.40;99.90
29939;DHT22;16799;50.844;5.304;2023-09-07T09:08:46;27.70;99.70
29939;DHT22;16799;50.844;5.304;2023-09-07T09:11:15;27.90;98.20
29939;DHT22;16799;50.844;5.304;2023-09-07T09:13:41;28.00;99.90
29939;DHT22;16799;50.844;5.304;2023-09-07T09:16:08;28.30;99.90
29939;DHT22;16799;50.844;5.304;2023-09-07T09:18:34;28.40;97.30
29939;DHT22;16799;50.844;5.304;2023-09-07T09:20:59;28.40;98.00
29939;DHT22;16799;50.844;5.304;2023-09-07T09:23:36;28.50;95.70
29939;DHT22;16799;50.844;5.304;2023-09-07T09:26:03;28.80;94.60
29939;DHT22;16799;50.844;5.304;2023-09-07T09:28:33;29.00;96.80
29939;DHT22;16799;50.844;5.304;2023-09-07T09:31:01;29.20;94.80
29939;DHT22;16799;50.844;5.304;2023-09-07T09:33:30;29.30;92.00
29939;DHT22;16799;50.844;5.304;2023-09-07T09:35:57;29.50;94.30
29939;DHT22;16799;50.844;5.304;2023-09-07T09:38:23;29.70;91.60
29939;DHT22;16799;50.844;5.304;2023-09-07T09:40:49;29.80;88.80
29939;DHT22;16799;50.844;5.304;2023-09-07T09:43:16;29.90;86.10
29939;DHT22;16799;50.844;5.304;2023-09-07T09:45:41;29.60;91.60
29939;DHT22;16799;50.844;5.304;2023-09-07T09:48:08;29.80;89.00
29939;DHT22;16799;50.844;5.304;2023-09-07T09:50:35;29.90;91.20
29939;DHT22;16799;50.844;5.304;2023-09-07T09:53:07;30.00;89.60
29939;DHT22;16799;50.844;5.304;2023-09-07T09:55:36;30.00;90.10
29939;DHT22;16799;50.844;5.304;2023-09-07T09:58:02;30.30;84.20
29939;DHT22;16799;50.844;5.304;2023-09-07T10:00:31;30.20;82.10
29939;DHT22;16799;50.844;5.304;2023-09-07T10:03:34;30.30;87.80
29939;DHT22;16799;50.844;5.304;2023-09-07T10:06:12;30.40;87.00
29939;DHT22;16799;50.844;5.304;2023-09-07T10:09:12;30.50;84.30
29939;DHT22;16799;50.844;5.304;2023-09-07T10:11:42;30.40;86.60
29939;DHT22;16799;50.844;5.304;2023-09-07T10:14:08;30.30;84.80
29939;DHT22;16799;50.844;5.304;2023-09-07T10:16:48;30.60;85.10
29939;DHT22;16799;50.844;5.304;2023-09-07T10:19:25;31.60;85.70
29939;DHT22;16799;50.844;5.304;2023-09-07T10:21:54;32.10;87.60
29939;DHT22;16799;50.844;5.304;2023-09-07T10:24:31;32.70;80.40
29939;DHT22;16799;50.844;5.304;2023-09-07T10:27:07;33.30;74.60
29939;DHT22;16799;50.844;5.304;2023-09-07T10:29:43;33.90;73.30
29939;DHT22;16799;50.844;5.304;2023-09-07T10:32:09;34.10;74.80
29939;DHT22;16799;50.844;5.304;2023-09-07T10:34:38;35.00;67.90
29939;DHT22;16799;50.844;5.304;2023-09-07T10:37:05;36.10;67.40
29939;DHT22;16799;50.844;5.304;2023-09-07T10:39:33;36.40;66.50
29939;DHT22;16799;50.844;5.304;2023-09-07T10:41:59;36.80;66.30
29939;DHT22;16799;50.844;5.304;2023-09-07T10:44:26;36.70;63.10
29939;DHT22;16799;50.844;5.304;2023-09-07T10:46:52;36.10;59.10
29939;DHT22;16799;50.844;5.304;2023-09-07T10:49:18;36.50;59.20
29939;DHT22;16799;50.844;5.304;2023-09-07T10:51:45;36.60;60.40
29939;DHT22;16799;50.844;5.304;2023-09-07T10:54:22;36.60;60.20
29939;DHT22;16799;50.844;5.304;2023-09-07T10:56:49;36.10;58.70
29939;DHT22;16799;50.844;5.304;2023-09-07T10:59:16;37.40;60.40
29939;DHT22;16799;50.844;5.304;2023-09-07T11:01:44;37.10;58.70
29939;DHT22;16799;50.844;5.304;2023-09-07T11:04:10;37.40;58.80
29939;DHT22;16799;50.844;5.304;2023-09-07T11:06:40;37.30;57.50
29939;DHT22;16799;50.844;5.304;2023-09-07T11:09:06;37.40;56.80
29939;DHT22;16799;50.844;5.304;2023-09-07T11:11:36;39.20;54.90
29939;DHT22;16799;50.844;5.304;2023-09-07T11:14:05;39.90;52.90
29939;DHT22;16799;50.844;5.304;2023-09-07T11:16:33;40.10;52.80
29939;DHT22;16799;50.844;5.304;2023-09-07T11:19:03;40.20;51.90
29939;DHT22;16799;50.844;5.304;2023-09-07T11:21:30;39.50;50.90
29939;DHT22;16799;50.844;5.304;2023-09-07T11:23:57;39.30;51.20
29939;DHT22;16799;50.844;5.304;2023-09-07T11:26:23;40.00;53.10
29939;DHT22;16799;50.844;5.304;2023-09-07T11:28:48;39.10;52.60
29939;DHT22;16799;50.844;5.304;2023-09-07T11:31:18;38.70;54.40
29939;DHT22;16799;50.844;5.304;2023-09-07T11:33:44;38.80;52.20
29939;DHT22;16799;50.844;5.304;2023-09-07T11:36:09;39.00;54.40
29939;DHT22;16799;50.844;5.304;2023-09-07T11:38:37;39.70;53.20
29939;DHT22;16799;50.844;5.304;2023-09-07T11:41:05;39.60;51.70
29939;DHT22;16799;50.844;5.304;2023-09-07T11:43:31;39.60;53.60
29939;DHT22;16799;50.844;5.304;2023-09-07T11:45:58;39.90;51.10
29939;DHT22;16799;50.844;5.304;2023-09-07T11:48:26;39.80;52.60
29939;DHT22;16799;50.844;5.304;2023-09-07T11:50:51;38.80;51.30
29939;DHT22;16799;50.844;5.304;2023-09-07T11:53:17;38.90;53.40
29939;DHT22;16799;50.844;5.304;2023-09-07T11:55:43;38.30;54.20
29939;DHT22;16799;50.844;5.304;2023-09-07T11:58:09;37.90;54.20
29939;DHT22;16799;50.844;5.304;2023-09-07T12:00:34;38.50;53.80
29939;DHT22;16799;50.844;5.304;2023-09-07T12:03:00;38.60;55.80
29939;DHT22;16799;50.844;5.304;2023-09-07T12:05:26;39.30;57.20
29939;DHT22;16799;50.844;5.304;2023-09-07T12:07:52;39.60;56.40
29939;DHT22;16799;50.844;5.304;2023-09-07T12:10:18;39.60;53.60
29939;DHT22;16799;50.844;5.304;2023-09-07T12:12:44;38.90;52.40
29939;DHT22;16799;50.844;5.304;2023-09-07T12:15:10;39.80;51.20
29939;DHT22;16799;50.844;5.304;2023-09-07T12:17:39;39.90;50.00
29939;DHT22;16799;50.844;5.304;2023-09-07T12:20:05;40.50;53.90
29939;DHT22;16799;50.844;5.304;2023-09-07T12:22:34;39.50;51.40
29939;DHT22;16799;50.844;5.304;2023-09-07T12:25:01;39.30;51.30
29939;DHT22;16799;50.844;5.304;2023-09-07T12:27:27;39.50;52.40
29939;DHT22;16799;50.844;5.304;2023-09-07T12:29:53;39.90;51.50
29939;DHT22;16799;50.844;5.304;2023-09-07T12:32:19;40.50;53.20
29939;DHT22;16799;50.844;5.304;2023-09-07T12:34:44;40.70;50.00
29939;DHT22;16799;50.844;5.304;2023-09-07T12:37:10;40.20;51.40
29939;DHT22;16799;50.844;5.304;2023-09-07T12:39:36;40.80;50.50
29939;DHT22;16799;50.844;5.304;2023-09-07T12:42:01;40.60;50.40
29939;DHT22;16799;50.844;5.304;2023-09-07T12:44:27;40.40;51.20
29939;DHT22;16799;50.844;5.304;2023-09-07T12:46:52;40.30;51.30
29939;DHT22;16799;50.844;5.304;2023-09-07T12:49:18;40.60;54.10
29939;DHT22;16799;50.844;5.304;2023-09-07T12:51:45;41.40;49.50
29939;DHT22;16799;50.844;5.304;2023-09-07T12:54:12;41.20;48.40
29939;DHT22;16799;50.844;5.304;2023-09-07T12:56:38;40.40;50.50
29939;DHT22;16799;50.844;5.304;2023-09-07T12:59:07;40.30;52.80
29939;DHT22;16799;50.844;5.304;2023-09-07T13:01:33;40.10;52.10
29939;DHT22;16799;50.844;5.304;2023-09-07T13:03:59;39.70;53.40
29939;DHT22;16799;50.844;5.304;2023-09-07T13:06:25;39.80;51.90
29939;DHT22;16799;50.844;5.304;2023-09-07T13:08:51;39.40;50.70
29939;DHT22;16799;50.844;5.304;2023-09-07T13:11:17;39.70;51.70
29939;DHT22;16799;50.844;5.304;2023-09-07T13:13:43;40.40;50.00
29939;DHT22;16799;50.844;5.304;2023-09-07T13:16:09;40.30;50.30
29939;DHT22;16799;50.844;5.304;2023-09-07T13:18:35;40.20;50.60
29939;DHT22;16799;50.844;5.304;2023-09-07T13:21:01;39.40;55.70
29939;DHT22;16799;50.844;5.304;2023-09-07T13:23:27;39.50;52.80
29939;DHT22;16799;50.844;5.304;2023-09-07T13:25:54;40.10;53.00
29939;DHT22;16799;50.844;5.304;2023-09-07T13:28:21;39.90;51.10
29939;DHT22;16799;50.844;5.304;2023-09-07T13:30:47;39.80;54.60
29939;DHT22;16799;50.844;5.304;2023-09-07T13:33:13;40.30;50.00
29939;DHT22;16799;50.844;5.304;2023-09-07T13:35:38;41.10;52.60
29939;DHT22;16799;50.844;5.304;2023-09-07T13:38:05;41.20;53.20
29939;DHT22;16799;50.844;5.304;2023-09-07T13:40:31;42.00;51.50
29939;DHT22;16799;50.844;5.304;2023-09-07T13:42:57;41.60;51.00
29939;DHT22;16799;50.844;5.304;2023-09-07T13:45:22;41.80;49.60
29939;DHT22;16799;50.844;5.304;2023-09-07T13:47:48;40.70;51.10
29939;DHT22;16799;50.844;5.304;2023-09-07T13:50:14;40.80;52.80
29939;DHT22;16799;50.844;5.304;2023-09-07T13:52:40;41.20;54.70
29939;DHT22;16799;50.844;5.304;2023-09-07T13:55:06;41.50;51.50
29939;DHT22;16799;50.844;5.304;2023-09-07T13:57:33;41.10;52.90
29939;DHT22;16799;50.844;5.304;2023-09-07T13:59:58;41.60;50.60
29939;DHT22;16799;50.844;5.304;2023-09-07T14:02:24;40.30;51.10
29939;DHT22;16799;50.844;5.304;2023-09-07T14:04:51;40.30;51.90
29939;DHT22;16799;50.844;5.304;2023-09-07T14:07:16;40.10;53.60
29939;DHT22;16799;50.844;5.304;2023-09-07T14:09:42;40.30;52.80
29939;DHT22;16799;50.844;5.304;2023-09-07T14:12:08;40.40;51.20
29939;DHT22;16799;50.844;5.304;2023-09-07T14:14:34;41.30;51.50
29939;DHT22;16799;50.844;5.304;2023-09-07T14:17:00;41.20;52.80
29939;DHT22;16799;50.844;5.304;2023-09-07T14:19:26;40.40;51.50
29939;DHT22;16799;50.844;5.304;2023-09-07T14:21:59;40.90;52.30
29939;DHT22;16799;50.844;5.304;2023-09-07T14:24:25;41.30;51.90
29939;DHT22;16799;50.844;5.304;2023-09-07T14:26:51;42.70;50.30
29939;DHT22;16799;50.844;5.304;2023-09-07T14:29:17;42.30;49.70
29939;DHT22;16799;50.844;5.304;2023-09-07T14:31:42;42.40;50.50
29939;DHT22;16799;50.844;5.304;2023-09-07T14:34:12;43.00;48.60
29939;DHT22;16799;50.844;5.304;2023-09-07T14:36:38;41.70;49.70
29939;DHT22;16799;50.844;5.304;2023-09-07T14:39:08;40.60;52.10
29939;DHT22;16799;50.844;5.304;2023-09-07T14:41:37;40.90;51.90
29939;DHT22;16799;50.844;5.304;2023-09-07T14:44:03;41.20;52.50
29939;DHT22;16799;50.844;5.304;2023-09-07T14:46:29;41.50;51.20
29939;DHT22;16799;50.844;5.304;2023-09-07T14:48:55;40.30;50.80
29939;DHT22;16799;50.844;5.304;2023-09-07T14:51:22;40.60;52.90
29939;DHT22;16799;50.844;5.304;2023-09-07T14:53:48;41.70;50.80
29939;DHT22;16799;50.844;5.304;2023-09-07T14:56:14;41.70;49.40
29939;DHT22;16799;50.844;5.304;2023-09-07T14:58:39;41.20;49.80
29939;DHT22;16799;50.844;5.304;2023-09-07T15:01:05;40.70;52.10
29939;DHT22;16799;50.844;5.304;2023-09-07T15:03:31;40.30;51.20
29939;DHT22;16799;50.844;5.304;2023-09-07T15:05:57;39.70;50.00
29939;DHT22;16799;50.844;5.304;2023-09-07T15:08:23;40.10;54.00
29939;DHT22;16799;50.844;5.304;2023-09-07T15:10:49;40.30;51.40
29939;DHT22;16799;50.844;5.304;2023-09-07T15:13:15;40.00;54.20
29939;DHT22;16799;50.844;5.304;2023-09-07T15:15:41;38.50;54.20
29939;DHT22;16799;50.844;5.304;2023-09-07T15:18:07;37.20;57.40
29939;DHT22;16799;50.844;5.304;2023-09-07T15:20:33;36.40;57.40
29939;DHT22;16799;50.844;5.304;2023-09-07T15:22:59;35.70;61.40
29939;DHT22;16799;50.844;5.304;2023-09-07T15:25:24;35.00;63.50
29939;DHT22;16799;50.844;5.304;2023-09-07T15:27:52;34.70;65.40